createdAt,value
2018-05-24T00:01:35.711Z,9.95
2018-05-24T00:04:10.335Z,10.73
2018-05-24T00:06:44.813Z,11.48
2018-05-24T00:09:19.244Z,11.10
2018-05-24T00:11:53.104Z,11.35
2018-05-24T00:14:26.918Z,10.90
2018-05-24T00:17:01.327Z,11.10
2018-05-24T00:19:34.975Z,11.18
2018-05-24T00:22:08.748Z,11.48
2018-05-24T00:24:42.465Z,10.93
2018-05-24T00:27:17.040Z,11.20
2018-05-24T00:29:50.756Z,11.10
2018-05-24T00:32:24.568Z,11.93
2018-05-24T00:34:58.230Z,11.18
2018-05-24T00:37:32.764Z,12.10
2018-05-24T00:40:06.406Z,10.93
2018-05-24T00:42:40.990Z,11.02
2018-05-24T00:45:14.716Z,14.13
2018-05-24T00:47:48.512Z,11.93
2018-05-24T00:50:22.342Z,12.55
2018-05-24T00:52:56.949Z,11.80
2018-05-24T00:55:40.528Z,11.95
2018-05-24T00:58:14.993Z,12.20
2018-05-24T01:00:48.801Z,12.63
2018-05-24T01:03:22.592Z,12.93
2018-05-24T01:05:56.294Z,11.95
2018-05-24T01:08:30.102Z,12.82
2018-05-24T01:11:03.917Z,12.65
2018-05-24T01:13:38.516Z,13.00
2018-05-24T01:16:12.167Z,12.82
2018-05-24T01:18:45.966Z,13.10
2018-05-24T01:21:20.481Z,12.43
2018-05-24T01:23:54.252Z,12.98
2018-05-24T01:26:28.810Z,12.45
2018-05-24T01:29:02.514Z,12.05
2018-05-24T01:31:36.220Z,12.35
2018-05-24T01:34:10.018Z,12.35
2018-05-24T01:36:56.525Z,12.45
2018-05-24T01:39:30.321Z,12.88
2018-05-24T01:42:04.193Z,13.13
2018-05-24T01:44:38.749Z,13.18
2018-05-24T01:47:13.165Z,12.85
2018-05-24T01:49:46.851Z,13.50
2018-05-24T01:52:20.728Z,13.77
2018-05-24T01:54:54.546Z,14.35
2018-05-24T01:57:28.130Z,14.25
2018-05-24T02:00:01.858Z,13.00
2018-05-24T02:02:35.716Z,13.75
2018-05-24T02:05:09.482Z,14.85
2018-05-24T02:07:44.052Z,13.18
2018-05-24T02:10:17.732Z,13.13
2018-05-24T02:12:51.564Z,13.35
2018-05-24T02:15:25.329Z,14.87
2018-05-24T02:17:59.194Z,14.73
2018-05-24T02:20:32.942Z,13.98
2018-05-24T02:23:06.665Z,13.70
2018-05-24T02:25:41.268Z,15.23
2018-05-24T02:28:14.957Z,12.30
2018-05-24T02:30:49.538Z,14.40
2018-05-24T02:33:23.322Z,13.93
2018-05-24T02:35:57.965Z,14.90
2018-05-24T02:38:31.648Z,13.25
2018-05-24T02:41:05.435Z,14.98
2018-05-24T02:43:39.213Z,14.73
2018-05-24T02:46:13.028Z,13.88
2018-05-24T02:48:46.743Z,14.50
2018-05-24T02:51:20.479Z,13.85
2018-05-24T02:53:54.116Z,14.63
2018-05-24T02:56:27.885Z,14.95
2018-05-24T02:59:01.730Z,13.82
2018-05-24T03:01:36.296Z,14.70
2018-05-24T03:04:09.946Z,16.33
2018-05-24T03:06:43.498Z,15.98
2018-05-24T03:09:17.107Z,16.77
2018-05-24T03:11:50.878Z,15.07
2018-05-24T03:14:24.772Z,15.40
2018-05-24T03:16:58.580Z,16.15
2018-05-24T03:19:33.075Z,17.02
2018-05-24T03:22:07.609Z,15.88
2018-05-24T03:24:42.236Z,15.50
2018-05-24T03:27:15.988Z,15.05
2018-05-24T03:29:49.726Z,13.88
2018-05-24T03:32:23.475Z,13.95
2018-05-24T03:34:57.295Z,15.50
2018-05-24T03:37:31.048Z,15.63
2018-05-24T03:40:04.755Z,15.48
2018-05-24T03:42:39.262Z,16.25
2018-05-24T03:45:13.016Z,14.98
2018-05-24T03:47:46.791Z,15.82
2018-05-24T03:50:21.312Z,15.20
2018-05-24T03:52:55.014Z,16.02
2018-05-24T03:55:28.849Z,16.55
2018-05-24T03:58:02.685Z,16.08
2018-05-24T04:00:48.381Z,17.00
2018-05-24T04:03:33.953Z,16.90
2018-05-24T04:06:07.723Z,16.83
2018-05-24T04:08:41.491Z,14.98
2018-05-24T04:11:16.133Z,16.05
2018-05-24T04:13:50.645Z,17.65
2018-05-24T04:16:25.075Z,16.10
2018-05-24T04:18:58.728Z,16.30
2018-05-24T04:21:32.503Z,16.73
2018-05-24T04:24:06.196Z,17.98
2018-05-24T04:26:39.976Z,16.25
2018-05-24T04:29:13.816Z,19.12
2018-05-24T04:31:47.591Z,18.62
2018-05-24T04:34:21.317Z,17.55
2018-05-24T04:36:54.856Z,17.10
2018-05-24T04:39:28.653Z,18.67
2018-05-24T04:42:02.469Z,18.02
2018-05-24T04:44:36.330Z,19.75
2018-05-24T04:47:10.151Z,20.00
2018-05-24T04:49:43.997Z,17.73
2018-05-24T04:52:17.817Z,19.58
2018-05-24T04:54:51.585Z,17.77
2018-05-24T04:57:25.362Z,21.00
2018-05-24T04:59:59.437Z,18.02
2018-05-24T05:02:33.176Z,18.05
2018-05-24T05:05:07.000Z,18.35
2018-05-24T05:07:40.758Z,19.15
2018-05-24T05:10:14.637Z,19.25
2018-05-24T05:12:48.573Z,18.65
2018-05-24T05:15:22.469Z,17.42
2018-05-24T05:17:56.179Z,17.45
2018-05-24T05:20:30.450Z,18.92
2018-05-24T05:23:04.365Z,19.05
2018-05-24T05:25:38.097Z,19.17
2018-05-24T05:28:11.829Z,19.58
2018-05-24T05:30:45.636Z,20.35
2018-05-24T05:33:19.417Z,19.02
2018-05-24T05:35:53.274Z,20.55
2018-05-24T05:38:26.940Z,18.12
2018-05-24T05:41:00.729Z,18.85
2018-05-24T05:43:35.269Z,18.98
2018-05-24T05:46:08.940Z,19.73
2018-05-24T05:48:42.693Z,17.62
2018-05-24T05:51:16.496Z,17.40
2018-05-24T05:53:50.321Z,19.20
2018-05-24T05:56:24.024Z,18.27
2018-05-24T05:58:58.667Z,17.10
2018-05-24T06:01:32.487Z,19.25
2018-05-24T06:04:06.185Z,20.90
2018-05-24T06:06:40.012Z,19.35
2018-05-24T06:09:13.784Z,18.65
2018-05-24T06:11:47.593Z,20.25
2018-05-24T06:14:21.388Z,18.50
2018-05-24T06:16:55.875Z,19.55
2018-05-24T06:19:29.536Z,19.80
2018-05-24T06:22:03.376Z,18.20
2018-05-24T06:24:37.143Z,21.40
2018-05-24T06:27:10.929Z,18.20
2018-05-24T06:29:44.606Z,22.83
2018-05-24T06:32:18.386Z,21.12
2018-05-24T06:34:52.223Z,19.73
2018-05-24T06:37:26.758Z,19.45
2018-05-24T06:40:00.550Z,20.20
2018-05-24T06:42:34.410Z,19.15
2018-05-24T06:45:08.213Z,19.33
2018-05-24T06:47:42.776Z,19.10
2018-05-24T06:50:17.352Z,22.15
2018-05-24T06:52:51.047Z,22.77
2018-05-24T06:55:24.909Z,20.62
2018-05-24T06:57:59.556Z,20.90
2018-05-24T07:00:34.224Z,21.25
2018-05-24T07:03:08.820Z,20.65
2018-05-24T07:05:42.533Z,21.08
2018-05-24T07:08:16.303Z,23.02
2018-05-24T07:10:50.080Z,20.77
2018-05-24T07:13:24.646Z,21.55
2018-05-24T07:15:58.332Z,21.90
2018-05-24T07:18:32.074Z,21.77
2018-05-24T07:21:05.796Z,20.45
2018-05-24T07:23:40.401Z,19.77
2018-05-24T07:26:14.194Z,21.35
2018-05-24T07:28:47.852Z,20.25
2018-05-24T07:31:21.694Z,22.37
2018-05-24T07:33:55.493Z,20.42
2018-05-24T07:36:29.300Z,21.35
2018-05-24T07:39:03.052Z,22.30
2018-05-24T07:41:36.745Z,22.95
2018-05-24T07:44:10.609Z,21.90
2018-05-24T07:46:45.146Z,21.20
2018-05-24T07:49:19.012Z,20.70
2018-05-24T07:51:52.678Z,22.20
2018-05-24T07:54:26.444Z,22.90
2018-05-24T07:57:00.171Z,22.90
2018-05-24T07:59:33.896Z,23.50
2018-05-24T08:02:08.480Z,21.67
2018-05-24T08:04:42.293Z,21.50
2018-05-24T08:07:15.924Z,22.65
2018-05-24T08:09:49.600Z,22.35
2018-05-24T08:12:23.357Z,23.50
2018-05-24T08:14:57.183Z,21.58
2018-05-24T08:17:31.008Z,22.42
2018-05-24T08:20:04.689Z,22.15
2018-05-24T08:22:39.187Z,22.17
2018-05-24T08:25:13.004Z,22.07
2018-05-24T08:27:46.804Z,21.10
2018-05-24T08:30:20.562Z,22.03
2018-05-24T08:32:54.299Z,22.83
2018-05-24T08:35:28.038Z,21.90
2018-05-24T08:38:02.561Z,23.60
2018-05-24T08:40:36.349Z,22.07
2018-05-24T08:43:10.185Z,22.50
2018-05-24T08:45:44.023Z,23.33
2018-05-24T08:48:17.642Z,23.50
2018-05-24T08:50:51.412Z,22.57
2018-05-24T08:53:25.192Z,22.10
2018-05-24T08:55:58.919Z,22.90
2018-05-24T08:58:32.716Z,22.20
2018-05-24T09:01:06.377Z,22.27
2018-05-24T09:03:40.213Z,22.53
2018-05-24T09:06:13.983Z,21.80
2018-05-24T09:08:47.723Z,22.43
2018-05-24T09:11:22.157Z,22.10
2018-05-24T09:13:55.937Z,21.67
2018-05-24T09:16:29.607Z,20.67
2018-05-24T09:19:04.158Z,20.90
2018-05-24T09:21:37.878Z,21.20
2018-05-24T09:24:11.809Z,20.00
2018-05-24T09:26:45.568Z,20.30
2018-05-24T09:29:19.354Z,19.70
2018-05-24T09:31:53.089Z,19.40
2018-05-24T09:34:26.767Z,18.27
2018-05-24T09:37:01.484Z,18.60
2018-05-24T09:39:36.213Z,18.13
2018-05-24T09:42:09.935Z,17.27
2018-05-24T09:44:43.640Z,17.13
2018-05-24T09:47:19.499Z,17.37
2018-05-24T09:49:53.213Z,17.70
2018-05-24T09:52:26.967Z,15.20
2018-05-24T09:55:00.841Z,14.77
2018-05-24T09:57:34.632Z,15.63
2018-05-24T10:00:09.207Z,17.33
2018-05-24T10:02:42.956Z,19.13
2018-05-24T10:05:17.554Z,17.83
2018-05-24T10:07:51.149Z,15.83
2018-05-24T10:10:25.709Z,16.27
2018-05-24T10:12:59.472Z,14.13
2018-05-24T10:15:34.116Z,13.73
2018-05-24T10:18:07.857Z,14.53
2018-05-24T10:20:42.367Z,13.40
2018-05-24T10:36:59.330Z,13.57
2018-05-24T10:39:33.035Z,12.73
2018-05-24T10:42:06.808Z,14.40
2018-05-24T10:44:40.597Z,14.00
2018-05-24T10:47:14.408Z,13.83
2018-05-24T10:49:48.949Z,14.50
2018-05-24T10:52:22.793Z,13.07
2018-05-24T10:54:56.562Z,13.33
2018-05-24T10:57:30.423Z,14.60
2018-05-24T11:00:04.223Z,12.20
2018-05-24T11:02:38.070Z,11.47
2018-05-24T11:05:11.815Z,11.67
2018-05-24T11:07:45.639Z,11.87
2018-05-24T11:10:19.306Z,12.70
2018-05-24T11:12:53.137Z,11.33
2018-05-24T11:15:26.740Z,10.57
2018-05-24T11:18:00.558Z,12.70
2018-05-24T11:20:34.361Z,10.30
2018-05-24T11:23:08.970Z,11.37
2018-05-24T11:25:43.581Z,11.03
2018-05-24T11:28:18.124Z,9.70
2018-05-24T11:30:51.868Z,10.33
2018-05-24T11:33:25.602Z,10.07
2018-05-24T11:35:59.296Z,10.73
2018-05-24T11:38:33.861Z,9.17
2018-05-24T11:41:07.565Z,8.93
2018-05-24T11:43:41.430Z,9.70
2018-05-24T11:46:15.168Z,9.33
2018-05-24T11:48:49.017Z,12.43
2018-05-24T11:51:22.776Z,9.50
2018-05-24T11:53:56.648Z,10.03
2018-05-24T11:56:31.250Z,9.10
2018-05-24T11:59:05.048Z,9.30
2018-05-24T12:01:38.861Z,9.10
2018-05-24T12:04:13.404Z,9.87
2018-05-24T12:06:47.158Z,8.90
2018-05-24T12:09:20.967Z,8.90
2018-05-24T12:11:54.703Z,9.57
2018-05-24T12:14:28.482Z,11.73
2018-05-24T12:17:02.311Z,10.53
2018-05-24T12:19:36.095Z,8.97
2018-05-24T12:22:09.891Z,9.00
2018-05-24T12:24:43.485Z,8.97
2018-05-24T12:27:17.084Z,8.70
2018-05-24T12:29:50.875Z,9.37
2018-05-24T12:32:24.518Z,9.50
2018-05-24T12:34:58.355Z,9.10
2018-05-24T12:37:32.889Z,8.83
2018-05-24T12:40:07.460Z,9.70
2018-05-24T12:42:41.142Z,9.73
2018-05-24T12:45:25.643Z,10.63
2018-05-24T12:47:59.324Z,9.70
2018-05-24T12:50:33.076Z,9.80
2018-05-24T12:53:07.048Z,10.03
2018-05-24T12:55:41.683Z,9.67
2018-05-24T12:58:15.260Z,10.37
2018-05-24T13:00:49.084Z,10.20
2018-05-24T13:03:22.927Z,11.27
2018-05-24T13:05:56.767Z,10.37
2018-05-24T13:08:31.389Z,10.23
2018-05-24T13:11:06.010Z,8.83
2018-05-24T13:13:39.845Z,9.47
2018-05-24T13:16:14.466Z,9.70
2018-05-24T13:18:48.289Z,10.90
2018-05-24T13:21:22.100Z,10.03
2018-05-24T13:23:55.811Z,8.60
2018-05-24T13:26:29.603Z,9.97
2018-05-24T13:29:03.395Z,10.20
2018-05-24T13:31:37.110Z,10.03
2018-05-24T13:34:11.565Z,10.73
2018-05-24T13:36:45.357Z,11.57
2018-05-24T13:39:19.107Z,12.47
2018-05-24T13:41:52.929Z,11.53
2018-05-24T13:44:26.771Z,11.50
2018-05-24T13:47:00.451Z,11.90
2018-05-24T13:49:34.308Z,10.77
2018-05-24T13:52:08.927Z,9.73
2018-05-24T13:54:42.699Z,10.57
2018-05-24T13:57:16.340Z,12.27
2018-05-24T13:59:50.034Z,13.00
2018-05-24T14:02:23.868Z,12.47
2018-05-24T14:04:57.560Z,12.43
2018-05-24T14:07:31.304Z,11.00
2018-05-24T14:10:05.123Z,12.00
2018-05-24T14:12:38.949Z,9.33
2018-05-24T14:15:12.701Z,9.43
2018-05-24T14:17:46.552Z,8.70
2018-05-24T14:20:20.395Z,7.30
2018-05-24T14:22:54.281Z,8.70
2018-05-24T14:25:27.977Z,7.53
2018-05-24T14:28:02.580Z,9.13
2018-05-24T14:30:37.056Z,8.67
2018-05-24T14:33:10.839Z,8.70
2018-05-24T14:35:44.638Z,8.47
2018-05-24T14:38:21.107Z,8.37
2018-05-24T14:41:00.232Z,8.70
2018-05-24T14:43:36.655Z,8.80
2018-05-24T14:46:12.899Z,7.87
2018-05-24T14:48:54.028Z,8.20
2018-05-24T14:51:40.542Z,7.80
2018-05-24T14:54:18.493Z,8.70
2018-05-24T14:56:57.404Z,8.10
2018-05-24T14:59:36.227Z,7.93
2018-05-24T15:02:15.792Z,9.17
2018-05-24T15:04:58.459Z,7.40
2018-05-24T15:07:38.249Z,8.00
2018-05-24T15:10:18.544Z,7.33
2018-05-24T15:12:54.506Z,7.10
2018-05-24T15:15:30.801Z,7.53
2018-05-24T15:18:09.521Z,6.97
2018-05-24T15:20:47.114Z,7.60
2018-05-24T15:23:23.330Z,7.57
2018-05-24T15:25:59.229Z,7.10
2018-05-24T15:28:39.152Z,7.93
2018-05-24T15:31:18.412Z,7.23
2018-05-24T15:34:00.515Z,8.25
2018-05-24T15:36:40.739Z,6.35
2018-05-24T15:39:19.136Z,6.87
2018-05-24T15:41:58.579Z,6.60
2018-05-24T15:44:38.132Z,6.55
2018-05-24T15:47:15.519Z,6.82
2018-05-24T15:49:50.891Z,7.57
2018-05-24T15:52:30.708Z,8.70
2018-05-24T15:55:08.836Z,7.20
2018-05-24T15:57:45.192Z,7.37
2018-05-24T16:00:32.523Z,7.03
2018-05-24T16:03:12.043Z,8.90
2018-05-24T16:05:51.703Z,6.90
2018-05-24T16:08:28.888Z,7.10
2018-05-24T16:11:07.101Z,9.20
2018-05-24T16:13:43.768Z,7.65
2018-05-24T16:16:19.530Z,9.07
2018-05-24T16:18:58.325Z,15.57
2018-05-24T16:21:37.454Z,9.32
2018-05-24T16:24:13.616Z,10.00
2018-05-24T16:26:49.562Z,11.07
2018-05-24T16:29:27.156Z,11.73
2018-05-24T16:32:06.807Z,11.05
2018-05-24T16:34:45.742Z,12.20
2018-05-24T16:37:22.237Z,10.05
2018-05-24T16:39:58.389Z,9.07
2018-05-24T16:42:35.250Z,10.35
2018-05-24T16:45:11.440Z,10.25
2018-05-24T16:47:50.230Z,11.00
2018-05-24T16:50:28.843Z,8.40
2018-05-24T16:53:04.089Z,8.20
2018-05-24T16:55:46.776Z,7.28
2018-05-24T16:58:29.764Z,8.05
2018-05-24T17:01:14.196Z,6.20
2018-05-24T17:03:57.702Z,5.62
2018-05-24T17:06:35.815Z,5.93
2018-05-24T17:09:18.734Z,7.22
2018-05-24T17:11:59.918Z,6.28
2018-05-24T17:17:28.611Z,4.45
2018-05-24T17:20:07.677Z,4.75
2018-05-24T17:22:51.197Z,5.82
2018-05-24T17:25:28.744Z,5.60
2018-05-24T17:28:11.346Z,5.40
2018-05-24T17:30:48.956Z,4.50
2018-05-24T17:33:29.089Z,4.10
2018-05-24T17:36:08.155Z,4.45
2018-05-24T17:38:48.194Z,4.32
2018-05-24T17:41:29.722Z,4.45
2018-05-24T17:44:05.620Z,3.90
2018-05-24T17:46:40.449Z,4.15
2018-05-24T17:49:15.199Z,4.30
2018-05-24T17:51:50.339Z,4.12
2018-05-24T17:54:27.556Z,4.62
2018-05-24T17:57:07.505Z,4.00
2018-05-24T17:59:45.371Z,20.27
2018-05-24T18:02:27.061Z,8.38
2018-05-24T18:05:06.197Z,8.10
2018-05-24T18:07:45.532Z,7.90
2018-05-24T18:10:23.619Z,6.68
2018-05-24T18:12:59.492Z,6.50
2018-05-24T18:15:37.853Z,6.62
2018-05-24T18:18:15.628Z,6.40
2018-05-24T18:20:52.398Z,5.65
2018-05-24T18:23:30.363Z,5.20
2018-05-24T18:26:09.109Z,4.95
2018-05-24T18:28:44.213Z,5.55
2018-05-24T18:31:22.347Z,5.30
2018-05-24T18:33:57.792Z,5.47
2018-05-24T18:36:38.151Z,5.00
2018-05-24T18:39:14.292Z,4.80
2018-05-24T18:41:49.755Z,5.35
2018-05-24T18:47:06.450Z,5.78
2018-05-24T18:49:44.620Z,7.00
2018-05-24T18:52:21.277Z,4.45
2018-05-24T18:55:00.488Z,4.78
2018-05-24T19:00:23.578Z,4.00
2018-05-24T19:02:58.446Z,5.12
2018-05-24T19:05:35.371Z,5.45
2018-05-24T19:08:24.592Z,4.12
2018-05-24T19:11:04.570Z,4.37
2018-05-24T19:13:43.162Z,4.05
2018-05-24T19:16:21.824Z,4.70
2018-05-24T19:19:03.183Z,5.15
2018-05-24T19:21:41.288Z,9.80
2018-05-24T19:24:16.220Z,4.78
2018-05-24T19:26:54.036Z,4.50
2018-05-24T19:29:31.907Z,6.60
2018-05-24T19:32:08.413Z,5.53
2018-05-24T19:34:46.537Z,4.90
2018-05-24T19:40:03.829Z,5.75
2018-05-24T19:42:39.463Z,5.28
2018-05-24T19:45:19.560Z,5.97
2018-05-24T19:47:58.172Z,4.75
2018-05-24T19:50:40.144Z,4.70
2018-05-24T19:53:16.286Z,4.95
2018-05-24T19:55:52.630Z,4.60
2018-05-24T19:58:28.931Z,5.20
2018-05-24T20:01:05.831Z,5.60
2018-05-24T20:03:44.158Z,5.72
2018-05-24T20:06:20.564Z,4.68
2018-05-24T20:09:02.025Z,5.50
2018-05-24T20:11:43.355Z,6.53
2018-05-24T20:14:21.497Z,5.20
2018-05-24T20:16:59.833Z,5.40
2018-05-24T20:19:38.591Z,4.95
2018-05-24T20:22:16.694Z,5.07
2018-05-24T20:24:55.122Z,4.70
2018-05-24T20:27:31.130Z,5.85
2018-05-24T20:30:07.324Z,5.10
2018-05-24T20:32:49.642Z,6.25
2018-05-24T20:35:25.892Z,6.00
2018-05-24T20:38:15.870Z,8.00
2018-05-24T20:41:01.473Z,5.07
2018-05-24T20:43:38.377Z,5.68
2018-05-24T20:46:13.940Z,4.95
2018-05-24T20:48:54.454Z,5.00
2018-05-24T20:51:29.492Z,4.20
2018-05-24T20:54:12.195Z,4.45
2018-05-24T20:56:52.082Z,4.55
2018-05-24T20:59:28.038Z,4.72
2018-05-24T21:02:06.433Z,6.80
2018-05-24T21:04:50.612Z,4.70
2018-05-24T21:07:29.282Z,5.30
2018-05-24T21:10:07.325Z,4.70
2018-05-24T21:12:49.849Z,4.70
2018-05-24T21:15:28.872Z,5.18
2018-05-24T21:18:06.016Z,4.82
2018-05-24T21:20:44.086Z,5.25
2018-05-24T21:23:24.912Z,5.07
2018-05-24T21:26:00.440Z,5.22
2018-05-24T21:28:41.499Z,5.65
2018-05-24T21:31:19.297Z,5.65
2018-05-24T21:33:57.010Z,6.43
2018-05-24T21:36:39.754Z,5.50
2018-05-24T21:39:20.776Z,4.90
2018-05-24T21:41:57.381Z,4.93
2018-05-24T21:44:33.973Z,5.00
2018-05-24T21:47:08.820Z,6.10
2018-05-24T21:49:46.890Z,6.28
2018-05-24T21:52:26.589Z,6.03
2018-05-24T21:55:01.694Z,5.60
2018-05-24T21:57:37.662Z,5.47
2018-05-24T22:00:15.786Z,5.97
2018-05-24T22:02:54.636Z,6.50
2018-05-24T22:05:32.905Z,6.00
2018-05-24T22:08:13.444Z,6.80
2018-05-24T22:10:51.772Z,6.62
2018-05-24T22:16:15.678Z,7.55
2018-05-24T22:18:53.275Z,7.10
2018-05-24T22:21:27.021Z,6.62
2018-05-24T22:24:00.806Z,6.68
2018-05-24T22:26:34.566Z,25.55
2018-05-24T22:29:08.371Z,8.43
2018-05-24T22:31:42.914Z,9.45
2018-05-24T22:34:16.592Z,8.48
2018-05-24T22:36:51.184Z,10.40
2018-05-24T22:39:24.936Z,9.02
2018-05-24T22:41:59.500Z,8.93
2018-05-24T22:44:33.210Z,9.98
2018-05-24T22:47:07.072Z,8.45
2018-05-24T22:49:41.528Z,8.68
2018-05-24T22:52:15.966Z,9.05
2018-05-24T22:54:49.704Z,8.15
2018-05-24T22:57:23.509Z,8.95
2018-05-24T22:59:58.029Z,8.57
2018-05-24T23:02:32.384Z,7.93
2018-05-24T23:05:06.205Z,7.50
2018-05-24T23:07:39.951Z,8.52
2018-05-24T23:10:13.801Z,7.60
2018-05-24T23:12:49.083Z,7.68
2018-05-24T23:15:22.894Z,7.93
2018-05-24T23:17:56.737Z,10.52
2018-05-24T23:20:30.674Z,13.20
2018-05-24T23:23:04.529Z,13.13
2018-05-24T23:25:38.351Z,13.48
2018-05-24T23:28:12.224Z,13.65
2018-05-24T23:30:46.024Z,14.20
2018-05-24T23:33:19.803Z,14.73
2018-05-24T23:35:53.572Z,14.85
2018-05-24T23:38:27.480Z,15.38
2018-05-24T23:41:02.807Z,13.85
2018-05-24T23:43:36.721Z,10.90
2018-05-24T23:46:10.467Z,9.40
2018-05-24T23:48:44.316Z,8.38
2018-05-24T23:51:18.112Z,8.20
2018-05-24T23:53:51.872Z,8.90
2018-05-24T23:56:25.476Z,9.48
2018-05-24T23:58:59.227Z,9.13
